createdAt,value
2019-05-03T00:01:17.814Z,1013.05
2019-05-03T00:02:18.442Z,1013.01
2019-05-03T00:03:19.074Z,1013.04
2019-05-03T00:04:19.643Z,1013.13
2019-05-03T00:06:04.735Z,1013.06
2019-05-03T00:07:05.311Z,1013.10
2019-05-03T00:08:05.887Z,1013.04
2019-05-03T00:09:06.466Z,1013.08
2019-05-03T00:10:51.827Z,1013.06
2019-05-03T00:11:52.916Z,1013.01
2019-05-03T00:12:53.472Z,1013.06
2019-05-03T00:13:54.048Z,1012.98
2019-05-03T00:15:39.186Z,1012.97
2019-05-03T00:16:41.618Z,1013.04
2019-05-03T00:17:42.021Z,1013.03
2019-05-03T00:18:42.585Z,1012.94
2019-05-03T00:20:27.673Z,1013.06
2019-05-03T00:21:28.247Z,1013.04
2019-05-03T00:22:28.822Z,1012.96
2019-05-03T00:23:29.448Z,1013.00
2019-05-03T00:25:14.484Z,1013.03
2019-05-03T00:26:15.058Z,1012.99
2019-05-03T00:27:15.632Z,1013.00
2019-05-03T00:28:16.207Z,1012.92
2019-05-03T00:30:02.834Z,1012.89
2019-05-03T00:31:02.865Z,1012.91
2019-05-03T00:32:03.440Z,1012.90
2019-05-03T00:33:04.016Z,1012.89
2019-05-03T00:34:49.103Z,1012.96
2019-05-03T00:35:49.676Z,1012.90
2019-05-03T00:36:50.254Z,1012.92
2019-05-03T00:37:52.584Z,1012.88
2019-05-03T00:39:37.678Z,1012.92
2019-05-03T00:40:38.254Z,1012.87
2019-05-03T00:41:38.828Z,1012.90
2019-05-03T00:42:39.404Z,1012.83
2019-05-03T00:44:24.643Z,1012.82
2019-05-03T00:45:25.218Z,1012.87
2019-05-03T00:46:25.844Z,1012.88
2019-05-03T00:47:26.469Z,1012.81
2019-05-03T00:49:11.988Z,1012.83
2019-05-03T00:50:12.604Z,1012.72
2019-05-03T00:51:13.180Z,1012.80
2019-05-03T00:52:13.758Z,1012.83
2019-05-03T00:53:58.893Z,1012.79
2019-05-03T00:54:59.470Z,1012.81
2019-05-03T00:56:01.727Z,1012.74
2019-05-03T00:57:02.679Z,1012.70
2019-05-03T00:58:47.743Z,1012.70
2019-05-03T00:59:48.368Z,1012.69
2019-05-03T01:00:48.992Z,1012.72
2019-05-03T01:01:49.567Z,1012.75
2019-05-03T01:03:34.661Z,1012.75
2019-05-03T01:04:35.287Z,1012.80
2019-05-03T01:05:35.861Z,1012.74
2019-05-03T01:06:36.488Z,1012.79
2019-05-03T01:08:21.998Z,1012.83
2019-05-03T01:09:22.683Z,1012.76
2019-05-03T01:10:23.258Z,1012.72
2019-05-03T01:11:23.833Z,1012.82
2019-05-03T01:13:08.922Z,1012.68
2019-05-03T01:14:09.548Z,1012.65
2019-05-03T01:15:10.121Z,1012.70
2019-05-03T01:16:11.825Z,1012.65
2019-05-03T01:17:56.730Z,1012.69
2019-05-03T01:18:57.353Z,1012.63
2019-05-03T01:19:57.928Z,1012.73
2019-05-03T01:20:58.506Z,1012.71
2019-05-03T01:22:43.542Z,1012.67
2019-05-03T01:23:44.166Z,1012.66
2019-05-03T01:24:44.743Z,1012.68
2019-05-03T01:25:45.318Z,1012.66
2019-05-03T01:27:32.384Z,1012.68
2019-05-03T01:28:32.317Z,1012.64
2019-05-03T01:29:32.637Z,1012.58
2019-05-03T01:30:33.213Z,1012.63
2019-05-03T01:32:18.346Z,1012.59
2019-05-03T01:33:18.974Z,1012.56
2019-05-03T01:34:19.596Z,1012.59
2019-05-03T01:35:21.901Z,1012.50
2019-05-03T01:37:06.252Z,1012.49
2019-05-03T01:38:06.826Z,1012.51
2019-05-03T01:39:07.401Z,1012.56
2019-05-03T01:40:07.981Z,1012.49
2019-05-03T01:41:53.011Z,1012.52
2019-05-03T01:42:53.586Z,1012.50
2019-05-03T01:43:54.167Z,1012.57
2019-05-03T01:44:54.734Z,1012.53
2019-05-03T01:46:39.822Z,1012.46
2019-05-03T01:47:41.940Z,1012.50
2019-05-03T01:48:41.966Z,1012.49
2019-05-03T01:49:42.690Z,1012.55
2019-05-03T01:51:28.093Z,1012.49
2019-05-03T01:52:28.667Z,1012.50
2019-05-03T01:53:29.241Z,1012.50
2019-05-03T01:54:29.817Z,1012.45
2019-05-03T01:56:14.955Z,1012.47
2019-05-03T01:57:15.530Z,1012.44
2019-05-03T01:58:16.104Z,1012.50
2019-05-03T01:59:16.679Z,1012.47
2019-05-03T02:01:02.796Z,1012.49
2019-05-03T02:02:03.329Z,1012.45
2019-05-03T02:03:03.903Z,1012.44
2019-05-03T02:04:04.479Z,1012.49
2019-05-03T02:05:49.622Z,1012.47
2019-05-03T02:06:51.880Z,1012.41
2019-05-03T02:07:52.008Z,1012.37
2019-05-03T02:08:52.463Z,1012.35
2019-05-03T02:10:37.601Z,1012.44
2019-05-03T02:11:38.176Z,1012.30
2019-05-03T02:12:38.750Z,1012.32
2019-05-03T02:13:39.326Z,1012.34
2019-05-03T02:15:24.362Z,1012.34
2019-05-03T02:16:25.087Z,1012.32
2019-05-03T02:17:25.660Z,1012.38
2019-05-03T02:18:26.233Z,1012.33
2019-05-03T02:20:12.587Z,1012.26
2019-05-03T02:21:12.891Z,1012.25
2019-05-03T02:22:13.470Z,1012.29
2019-05-03T02:23:14.036Z,1012.35
2019-05-03T02:24:59.173Z,1012.26
2019-05-03T02:25:59.807Z,1012.24
2019-05-03T02:27:02.200Z,1012.26
2019-05-03T02:28:02.093Z,1012.28
2019-05-03T02:29:47.160Z,1012.22
2019-05-03T02:30:47.739Z,1012.28
2019-05-03T02:31:48.354Z,1012.19
2019-05-03T02:32:48.929Z,1012.22
2019-05-03T02:34:33.969Z,1012.24
2019-05-03T02:35:34.544Z,1012.20
2019-05-03T02:36:35.167Z,1012.24
2019-05-03T02:37:35.742Z,1012.28
2019-05-03T02:39:22.900Z,1012.24
2019-05-03T02:40:24.604Z,1012.26
2019-05-03T02:41:23.983Z,1012.23
2019-05-03T02:42:26.558Z,1012.22
2019-05-03T02:44:10.670Z,1012.24
2019-05-03T02:45:11.296Z,1012.25
2019-05-03T02:46:11.870Z,1012.28
2019-05-03T02:47:12.447Z,1012.29
2019-05-03T02:48:57.584Z,1012.29
2019-05-03T02:49:58.160Z,1012.26
2019-05-03T02:50:58.733Z,1012.23
2019-05-03T02:51:59.317Z,1012.33
2019-05-03T02:53:45.704Z,1012.32
2019-05-03T02:54:46.480Z,1012.32
2019-05-03T02:55:46.575Z,1012.33
2019-05-03T02:56:47.150Z,1012.33
2019-05-03T02:58:32.258Z,1012.30
2019-05-03T02:59:34.723Z,1012.22
2019-05-03T03:00:36.065Z,1012.36
2019-05-03T03:01:35.812Z,1012.31
2019-05-03T03:03:21.114Z,1012.27
2019-05-03T03:04:21.692Z,1012.23
2019-05-03T03:05:22.269Z,1012.33
2019-05-03T03:06:22.841Z,1012.26
2019-05-03T03:08:07.928Z,1012.34
2019-05-03T03:09:08.553Z,1012.24
2019-05-03T03:10:09.276Z,1012.34
2019-05-03T03:11:09.850Z,1012.28
2019-05-03T03:12:55.437Z,1012.23
2019-05-03T03:13:56.032Z,1012.15
2019-05-03T03:14:56.657Z,1012.19
2019-05-03T03:15:57.281Z,1012.17
2019-05-03T03:17:45.568Z,1012.22
2019-05-03T03:18:45.641Z,1012.11
2019-05-03T03:19:46.108Z,1012.19
2019-05-03T03:20:46.831Z,1012.23
2019-05-03T03:22:31.919Z,1012.17
2019-05-03T03:23:35.313Z,1012.22
2019-05-03T03:27:20.805Z,1012.23
2019-05-03T03:28:21.387Z,1012.17
2019-05-03T03:29:22.005Z,1012.21
2019-05-03T03:30:22.582Z,1012.22
2019-05-03T03:32:09.469Z,1012.23
2019-05-03T03:33:09.563Z,1012.19
2019-05-03T03:34:10.267Z,1012.26
2019-05-03T03:35:12.653Z,1012.22
2019-05-03T03:37:03.761Z,1012.23
2019-05-03T03:37:58.583Z,1012.24
2019-05-03T03:38:59.212Z,1012.17
2019-05-03T03:39:59.824Z,1012.19
2019-05-03T03:41:45.357Z,1012.19
2019-05-03T03:42:45.930Z,1012.26
2019-05-03T03:43:46.504Z,1012.23
2019-05-03T03:44:47.080Z,1012.28
2019-05-03T03:46:32.363Z,1012.29
2019-05-03T03:47:35.578Z,1012.25
2019-05-03T03:48:35.446Z,1012.29
2019-05-03T03:49:36.047Z,1012.26
2019-05-03T03:51:21.172Z,1012.37
2019-05-03T03:52:21.748Z,1012.33
2019-05-03T03:53:22.320Z,1012.26
2019-05-03T03:54:22.896Z,1012.24
2019-05-03T03:56:07.984Z,1012.26
2019-05-03T03:57:08.656Z,1012.27
2019-05-03T03:58:09.267Z,1012.29
2019-05-03T03:59:09.844Z,1012.36
2019-05-03T04:00:55.483Z,1012.41
2019-05-03T04:01:55.647Z,1012.38
2019-05-03T04:02:56.224Z,1012.40
2019-05-03T04:03:56.795Z,1012.37
2019-05-03T04:05:41.882Z,1012.46
2019-05-03T04:06:42.457Z,1012.43
2019-05-03T04:07:43.040Z,1012.33
2019-05-03T04:08:45.416Z,1012.36
2019-05-03T04:10:29.736Z,1012.46
2019-05-03T04:11:30.315Z,1012.51
2019-05-03T04:12:30.885Z,1012.37
2019-05-03T04:13:31.510Z,1012.34
2019-05-03T04:15:16.601Z,1012.44
2019-05-03T04:16:20.732Z,1012.36
2019-05-03T04:17:18.740Z,1012.35
2019-05-03T04:18:19.319Z,1012.30
2019-05-03T04:20:05.044Z,1012.40
2019-05-03T04:21:05.760Z,1012.45
2019-05-03T04:22:06.322Z,1012.49
2019-05-03T04:23:06.956Z,1012.46
2019-05-03T04:24:52.081Z,1012.47
2019-05-03T04:25:52.657Z,1012.56
2019-05-03T04:26:53.229Z,1012.50
2019-05-03T04:27:56.027Z,1012.52
2019-05-03T04:29:39.911Z,1012.42
2019-05-03T04:30:40.508Z,1012.52
2019-05-03T04:31:41.120Z,1012.53
2019-05-03T04:32:41.695Z,1012.48
2019-05-03T04:34:26.781Z,1012.55
2019-05-03T04:35:27.356Z,1012.53
2019-05-03T04:36:27.929Z,1012.47
2019-05-03T04:37:28.505Z,1012.53
2019-05-03T04:39:19.044Z,1012.58
2019-05-03T04:40:15.916Z,1012.57
2019-05-03T04:41:16.686Z,1012.60
2019-05-03T04:42:17.259Z,1012.53
2019-05-03T04:44:02.399Z,1012.49
2019-05-03T04:45:05.669Z,1012.57
2019-05-03T04:46:06.555Z,1012.57
2019-05-03T04:47:06.998Z,1012.58
2019-05-03T04:48:52.140Z,1012.55
2019-05-03T04:49:55.272Z,1012.64
2019-05-03T04:50:55.000Z,1012.59
2019-05-03T04:51:56.097Z,1012.62
2019-05-03T04:53:41.184Z,1012.53
2019-05-03T04:54:41.758Z,1012.49
2019-05-03T04:55:42.382Z,1012.51
2019-05-03T04:56:42.959Z,1012.51
2019-05-03T04:58:28.045Z,1012.56
2019-05-03T04:59:28.621Z,1012.58
2019-05-03T05:00:29.194Z,1012.60
2019-05-03T05:01:29.822Z,1012.49
2019-05-03T05:03:15.215Z,1012.53
2019-05-03T05:04:16.285Z,1012.54
2019-05-03T05:05:16.854Z,1012.57
2019-05-03T05:06:17.430Z,1012.55
2019-05-03T05:08:02.515Z,1012.57
2019-05-03T05:09:05.003Z,1012.53
2019-05-03T05:10:05.273Z,1012.57
2019-05-03T05:11:09.771Z,1012.55
2019-05-03T05:12:51.976Z,1012.63
2019-05-03T05:13:52.550Z,1012.56
2019-05-03T05:14:53.175Z,1012.63
2019-05-03T05:15:55.070Z,1012.61
2019-05-03T05:17:39.889Z,1012.61
2019-05-03T05:18:40.461Z,1012.61
2019-05-03T05:19:41.083Z,1012.55
2019-05-03T05:20:41.651Z,1012.66
2019-05-03T05:22:26.713Z,1012.68
2019-05-03T05:23:27.306Z,1012.64
2019-05-03T05:24:27.879Z,1012.72
2019-05-03T05:25:28.453Z,1012.76
2019-05-03T05:27:14.650Z,1012.79
2019-05-03T05:28:15.207Z,1012.81
2019-05-03T05:29:15.731Z,1012.71
2019-05-03T05:30:16.405Z,1012.82
2019-05-03T05:32:01.592Z,1012.70
2019-05-03T05:33:02.368Z,1012.76
2019-05-03T05:34:02.946Z,1012.81
2019-05-03T05:35:05.173Z,1012.76
2019-05-03T05:36:49.695Z,1012.83
2019-05-03T05:37:50.270Z,1012.78
2019-05-03T05:38:50.895Z,1012.80
2019-05-03T05:39:51.470Z,1012.85
2019-05-03T05:41:36.607Z,1012.81
2019-05-03T05:42:37.182Z,1012.84
2019-05-03T05:43:37.754Z,1012.80
2019-05-03T05:44:38.330Z,1012.91
2019-05-03T05:46:24.918Z,1012.91
2019-05-03T05:47:25.458Z,1012.91
2019-05-03T05:48:25.595Z,1012.91
2019-05-03T05:49:26.171Z,1012.91
2019-05-03T05:51:13.643Z,1012.97
2019-05-03T05:52:11.870Z,1012.90
2019-05-03T05:53:12.493Z,1012.92
2019-05-03T05:54:14.379Z,1012.94
2019-05-03T05:55:59.201Z,1012.98
2019-05-03T05:56:59.775Z,1012.89
2019-05-03T05:58:04.744Z,1012.98
2019-05-03T05:59:01.966Z,1012.98
2019-05-03T06:00:47.154Z,1012.98
2019-05-03T06:01:47.730Z,1012.96
2019-05-03T06:02:48.303Z,1013.03
2019-05-03T06:03:48.878Z,1013.07
2019-05-03T06:05:35.534Z,1013.11
2019-05-03T06:06:34.859Z,1013.00
2019-05-03T06:07:35.429Z,1013.06
2019-05-03T06:08:36.001Z,1012.94
2019-05-03T06:10:21.137Z,1013.02
2019-05-03T06:11:21.713Z,1013.02
2019-05-03T06:12:22.287Z,1012.98
2019-05-03T06:13:22.862Z,1013.04
2019-05-03T06:15:08.004Z,1013.05
2019-05-03T06:16:08.573Z,1013.04
2019-05-03T06:17:09.148Z,1013.01
2019-05-03T06:18:09.772Z,1013.02
2019-05-03T06:19:55.040Z,1012.98
2019-05-03T06:20:55.643Z,1013.04
2019-05-03T06:21:56.217Z,1013.06
2019-05-03T06:22:56.790Z,1013.04
2019-05-03T06:24:41.876Z,1013.06
2019-05-03T06:25:42.451Z,1013.08
2019-05-03T06:26:44.349Z,1013.12
2019-05-03T06:27:44.974Z,1013.13
2019-05-03T06:29:30.039Z,1013.24
2019-05-03T06:30:30.615Z,1013.24
2019-05-03T06:31:31.190Z,1013.19
2019-05-03T06:32:31.765Z,1013.13
2019-05-03T06:34:16.803Z,1013.21
2019-05-03T06:35:17.427Z,1013.27
2019-05-03T06:36:18.000Z,1013.24
2019-05-03T06:37:18.577Z,1013.24
2019-05-03T06:39:06.695Z,1013.31
2019-05-03T06:40:06.156Z,1013.29
2019-05-03T06:41:06.799Z,1013.33
2019-05-03T06:42:10.040Z,1013.30
2019-05-03T06:43:55.177Z,1013.29
2019-05-03T06:44:59.231Z,1013.30
2019-05-03T06:45:55.683Z,1013.37
2019-05-03T06:46:56.257Z,1013.41
2019-05-03T06:48:41.543Z,1013.47
2019-05-03T06:49:44.907Z,1013.38
2019-05-03T06:50:45.426Z,1013.45
2019-05-03T06:51:49.493Z,1013.36
2019-05-03T06:53:31.387Z,1013.39
2019-05-03T06:54:31.961Z,1013.41
2019-05-03T06:55:32.536Z,1013.48
2019-05-03T06:56:34.952Z,1013.48
2019-05-03T06:58:30.571Z,1013.48
2019-05-03T06:59:20.762Z,1013.57
2019-05-03T07:00:21.384Z,1013.50
2019-05-03T07:01:21.958Z,1013.52
2019-05-03T07:03:06.994Z,1013.52
2019-05-03T07:04:07.611Z,1013.53
2019-05-03T07:05:08.184Z,1013.59
2019-05-03T07:06:08.758Z,1013.68
2019-05-03T07:07:54.754Z,1013.65
2019-05-03T07:08:55.318Z,1013.60
2019-05-03T07:09:55.892Z,1013.56
2019-05-03T07:10:56.544Z,1013.61
2019-05-03T07:12:41.630Z,1013.66
2019-05-03T07:13:42.204Z,1013.63
2019-05-03T07:14:44.879Z,1013.66
2019-05-03T07:15:45.441Z,1013.66
2019-05-03T07:17:30.479Z,1013.64
2019-05-03T07:18:31.053Z,1013.64
2019-05-03T07:19:31.629Z,1013.68
2019-05-03T07:20:32.296Z,1013.70
2019-05-03T07:22:17.432Z,1013.75
2019-05-03T07:23:18.012Z,1013.73
2019-05-03T07:24:18.581Z,1013.73
2019-05-03T07:25:19.156Z,1013.70
2019-05-03T07:27:05.427Z,1013.74
2019-05-03T07:28:05.862Z,1013.69
2019-05-03T07:29:06.437Z,1013.75
2019-05-03T07:30:07.014Z,1013.77
2019-05-03T07:31:52.194Z,1013.79
2019-05-03T07:32:54.529Z,1013.76
2019-05-03T07:33:55.105Z,1013.80
2019-05-03T07:34:55.729Z,1013.73
2019-05-03T07:36:40.819Z,1013.89
2019-05-03T07:37:41.392Z,1013.85
2019-05-03T07:38:41.965Z,1013.89
2019-05-03T07:39:42.538Z,1013.86
2019-05-03T07:41:27.676Z,1013.76
2019-05-03T07:42:28.301Z,1013.79
2019-05-03T07:43:28.924Z,1013.80
2019-05-03T07:44:29.498Z,1013.85
2019-05-03T07:46:14.848Z,1013.83
2019-05-03T07:47:15.421Z,1013.87
2019-05-03T07:48:16.046Z,1013.83
2019-05-03T07:49:16.620Z,1013.81
2019-05-03T07:51:01.758Z,1013.82
2019-05-03T07:52:02.334Z,1013.90
2019-05-03T07:53:04.646Z,1013.83
2019-05-03T07:54:04.753Z,1013.94
2019-05-03T07:55:49.892Z,1013.92
2019-05-03T07:56:50.511Z,1013.83
2019-05-03T07:57:51.085Z,1013.85
2019-05-03T07:58:59.942Z,1013.91
2019-05-03T08:00:37.942Z,1013.87
2019-05-03T08:01:38.520Z,1013.89
2019-05-03T08:02:39.134Z,1013.93
2019-05-03T08:03:39.766Z,1013.87
2019-05-03T08:05:24.848Z,1013.85
2019-05-03T08:06:25.424Z,1013.89
2019-05-03T08:07:26.001Z,1013.78
2019-05-03T08:08:26.625Z,1013.87
2019-05-03T08:10:11.761Z,1013.95
2019-05-03T08:11:14.390Z,1013.92
2019-05-03T08:12:15.381Z,1013.91
2019-05-03T08:13:15.465Z,1013.98
2019-05-03T08:15:00.551Z,1013.93
2019-05-03T08:16:01.185Z,1013.88
2019-05-03T08:17:01.808Z,1013.93
2019-05-03T08:18:04.752Z,1013.90
2019-05-03T08:19:48.463Z,1013.81
2019-05-03T08:20:49.089Z,1013.81
2019-05-03T08:21:49.668Z,1013.87
2019-05-03T08:22:50.283Z,1013.83
2019-05-03T08:24:35.420Z,1013.86
2019-05-03T08:25:35.997Z,1013.86
2019-05-03T08:26:36.573Z,1013.82
2019-05-03T08:27:37.150Z,1013.90
2019-05-03T08:29:22.242Z,1013.94
2019-05-03T08:30:22.813Z,1013.83
2019-05-03T08:31:26.507Z,1013.88
2019-05-03T08:32:25.999Z,1013.89
2019-05-03T08:34:11.088Z,1013.92
2019-05-03T08:35:11.715Z,1013.89
2019-05-03T08:36:12.299Z,1013.87
2019-05-03T08:37:12.914Z,1013.79
2019-05-03T08:38:57.953Z,1013.82
2019-05-03T08:39:58.529Z,1013.87
2019-05-03T08:40:59.104Z,1013.90
2019-05-03T08:41:59.677Z,1013.77
2019-05-03T08:43:44.801Z,1013.81
2019-05-03T08:44:45.438Z,1013.73
2019-05-03T08:45:46.038Z,1013.80
2019-05-03T08:46:47.289Z,1013.81
2019-05-03T08:48:31.782Z,1013.77
2019-05-03T08:49:34.574Z,1013.80
2019-05-03T08:50:34.795Z,1013.78
2019-05-03T08:51:35.452Z,1013.80
2019-05-03T08:53:20.571Z,1013.74
2019-05-03T08:54:21.148Z,1013.66
2019-05-03T08:55:21.721Z,1013.72
2019-05-03T08:56:24.225Z,1013.72
2019-05-03T08:58:08.405Z,1013.74
2019-05-03T08:59:09.019Z,1013.68
2019-05-03T09:00:09.596Z,1013.70
2019-05-03T09:01:10.171Z,1013.68
2019-05-03T09:02:55.262Z,1013.67
2019-05-03T09:03:56.080Z,1013.69
2019-05-03T09:04:56.720Z,1013.64
2019-05-03T09:05:57.295Z,1013.66
2019-05-03T09:07:44.633Z,1013.66
2019-05-03T09:08:45.798Z,1013.66
2019-05-03T09:09:46.092Z,1013.71
2019-05-03T09:10:45.975Z,1013.62
2019-05-03T09:12:31.255Z,1013.61
2019-05-03T09:13:31.834Z,1013.69
2019-05-03T09:14:39.529Z,1013.75
2019-05-03T09:15:35.093Z,1013.70
2019-05-03T09:17:20.120Z,1013.64
2019-05-03T09:18:20.685Z,1013.65
2019-05-03T09:19:21.260Z,1013.66
2019-05-03T09:20:21.887Z,1013.66
2019-05-03T09:22:07.028Z,1013.67
2019-05-03T09:23:07.658Z,1013.59
2019-05-03T09:24:08.230Z,1013.67
2019-05-03T09:25:08.805Z,1013.65
2019-05-03T09:26:55.590Z,1013.65
2019-05-03T09:27:55.575Z,1013.59
2019-05-03T09:28:56.126Z,1013.58
2019-05-03T09:29:56.703Z,1013.61
2019-05-03T09:31:41.790Z,1013.59
2019-05-03T09:32:44.582Z,1013.63
2019-05-03T09:33:45.177Z,1013.69
2019-05-03T09:34:45.557Z,1013.61
2019-05-03T09:36:30.650Z,1013.66
2019-05-03T09:37:31.222Z,1013.69
2019-05-03T09:38:31.798Z,1013.65
2019-05-03T09:39:32.376Z,1013.68
2019-05-03T09:41:17.471Z,1013.70
2019-05-03T09:42:18.041Z,1013.58
2019-05-03T09:43:18.668Z,1013.65
2019-05-03T09:44:19.243Z,1013.76
2019-05-03T09:46:05.162Z,1013.70
2019-05-03T09:47:05.841Z,1013.64
2019-05-03T09:48:06.376Z,1013.67
2019-05-03T09:49:12.755Z,1013.57
2019-05-03T09:50:53.128Z,1013.68
2019-05-03T09:51:54.815Z,1013.67
2019-05-03T09:52:55.555Z,1013.69
2019-05-03T09:53:56.128Z,1013.65
2019-05-03T09:55:41.262Z,1013.71
2019-05-03T09:56:53.019Z,1013.70
2019-05-03T09:57:44.419Z,1013.69
2019-05-03T09:58:45.960Z,1013.65
2019-05-03T10:00:30.156Z,1013.64
2019-05-03T10:01:30.734Z,1013.66
2019-05-03T10:02:31.310Z,1013.65
2019-05-03T10:03:31.892Z,1013.65
2019-05-03T10:05:16.978Z,1013.61
2019-05-03T10:06:17.850Z,1013.59
2019-05-03T10:07:18.409Z,1013.64
2019-05-03T10:08:18.985Z,1013.57
2019-05-03T10:10:05.733Z,1013.56
2019-05-03T10:11:05.782Z,1013.55
2019-05-03T10:12:06.305Z,1013.54
2019-05-03T10:13:14.193Z,1013.58
2019-05-03T10:14:52.099Z,1013.54
2019-05-03T10:15:54.814Z,1013.57
2019-05-03T10:16:54.792Z,1013.56
2019-05-03T10:17:55.620Z,1013.51
2019-05-03T10:19:40.712Z,1013.55
2019-05-03T10:20:41.254Z,1013.56
2019-05-03T10:21:41.831Z,1013.62
2019-05-03T10:22:42.408Z,1013.54
2019-05-03T10:24:27.497Z,1013.59
2019-05-03T10:25:28.126Z,1013.66
2019-05-03T10:26:28.700Z,1013.62
2019-05-03T10:27:29.277Z,1013.60
2019-05-03T10:29:15.253Z,1013.57
2019-05-03T10:30:17.132Z,1013.61
2019-05-03T10:31:17.572Z,1013.71
2019-05-03T10:32:18.184Z,1013.60
2019-05-03T10:34:05.593Z,1013.58
2019-05-03T10:35:05.704Z,1013.65
2019-05-03T10:36:05.682Z,1013.71
2019-05-03T10:37:06.218Z,1013.68
2019-05-03T10:38:51.307Z,1013.61
2019-05-03T10:39:51.934Z,1013.65
2019-05-03T10:40:54.872Z,1013.67
2019-05-03T10:41:54.982Z,1013.64
2019-05-03T10:43:39.212Z,1013.62
2019-05-03T10:44:40.240Z,1013.55
2019-05-03T10:45:40.818Z,1013.63
2019-05-03T10:46:41.393Z,1013.64
2019-05-03T10:48:26.536Z,1013.62
2019-05-03T10:49:27.153Z,1013.59
2019-05-03T10:50:27.733Z,1013.63
2019-05-03T10:51:28.355Z,1013.56
2019-05-03T10:53:15.301Z,1013.56
2019-05-03T10:54:15.017Z,1013.54
2019-05-03T10:55:15.997Z,1013.61
2019-05-03T10:56:22.781Z,1013.61
2019-05-03T10:58:02.372Z,1013.58
2019-05-03T10:59:02.939Z,1013.60
2019-05-03T11:00:05.050Z,1013.66
2019-05-03T11:01:05.217Z,1013.62
2019-05-03T11:02:50.332Z,1013.64
2019-05-03T11:03:50.917Z,1013.60
2019-05-03T11:04:51.501Z,1013.60
2019-05-03T11:05:52.081Z,1013.63
2019-05-03T11:07:37.184Z,1013.70
2019-05-03T11:08:37.763Z,1013.67
2019-05-03T11:09:48.556Z,1013.55
2019-05-03T11:10:39.168Z,1013.66
2019-05-03T11:12:25.480Z,1013.71
2019-05-03T11:13:26.422Z,1013.62
2019-05-03T11:14:27.117Z,1013.55
2019-05-03T11:15:27.703Z,1013.65
2019-05-03T11:17:14.744Z,1013.63
2019-05-03T11:18:14.785Z,1013.63
2019-05-03T11:19:15.389Z,1013.70
2019-05-03T11:20:28.142Z,1013.72
2019-05-03T11:22:06.108Z,1013.61
2019-05-03T11:25:24.918Z,1013.62
2019-05-03T11:31:16.042Z,1013.57
2019-05-03T11:33:19.018Z,1013.58
2019-05-03T11:34:45.381Z,1013.57
2019-05-03T11:35:45.968Z,1013.55
2019-05-03T11:36:46.596Z,1013.59
2019-05-03T11:37:47.170Z,1013.43
2019-05-03T11:39:32.138Z,1013.52
2019-05-03T11:40:34.471Z,1013.58
2019-05-03T11:41:35.824Z,1013.55
2019-05-03T11:42:35.909Z,1013.50
2019-05-03T11:44:20.836Z,1013.55
2019-05-03T11:45:21.413Z,1013.51
2019-05-03T11:49:14.896Z,1013.42
2019-05-03T11:50:15.461Z,1013.34
2019-05-03T11:51:16.099Z,1013.43
2019-05-03T11:52:17.526Z,1013.40
2019-05-03T11:54:05.732Z,1013.46
2019-05-03T11:55:10.464Z,1013.44
2019-05-03T11:56:05.877Z,1013.40
2019-05-03T11:57:06.473Z,1013.37
2019-05-03T12:00:26.809Z,1013.39
2019-05-03T12:01:28.004Z,1013.45
2019-05-03T12:03:30.237Z,1013.48
2019-05-03T12:06:16.951Z,1013.46
2019-05-03T12:07:20.602Z,1013.47
2019-05-03T12:12:20.802Z,1013.44
2019-05-03T12:17:59.175Z,1013.32
2019-05-03T12:18:59.403Z,1013.31
2019-05-03T12:20:01.192Z,1013.34
2019-05-03T12:21:18.127Z,1013.43
2019-05-03T12:24:30.236Z,1013.42
2019-05-03T12:25:31.883Z,1013.45
2019-05-03T12:27:52.084Z,1013.48
2019-05-03T12:28:52.706Z,1013.49
2019-05-03T12:29:53.330Z,1013.45
2019-05-03T12:30:53.997Z,1013.42
2019-05-03T12:32:38.898Z,1013.39
2019-05-03T12:33:39.471Z,1013.38
2019-05-03T12:34:40.045Z,1013.39
2019-05-03T12:35:40.619Z,1013.44
2019-05-03T12:37:25.492Z,1013.35
2019-05-03T12:38:26.066Z,1013.37
2019-05-03T12:41:12.001Z,1013.37
2019-05-03T12:42:14.768Z,1013.31
2019-05-03T12:46:06.769Z,1013.32
2019-05-03T12:47:07.344Z,1013.33
2019-05-03T12:48:21.830Z,1013.26
2019-05-03T12:49:22.453Z,1013.30
2019-05-03T12:50:25.024Z,1013.28
2019-05-03T12:51:25.144Z,1013.30
2019-05-03T12:53:10.323Z,1013.27
2019-05-03T12:54:10.895Z,1013.26
2019-05-03T12:55:11.469Z,1013.30
2019-05-03T12:56:13.823Z,1013.26
2019-05-03T12:58:06.412Z,1013.32
2019-05-03T12:59:06.593Z,1013.24
2019-05-03T13:00:07.164Z,1013.18
2019-05-03T13:01:07.781Z,1013.23
2019-05-03T13:02:52.706Z,1013.12
2019-05-03T13:03:55.346Z,1013.22
2019-05-03T13:05:20.674Z,1013.17
2019-05-03T13:06:21.291Z,1013.18
2019-05-03T13:07:21.916Z,1013.17
2019-05-03T13:08:45.554Z,1013.00
2019-05-03T13:10:06.961Z,1013.06
2019-05-03T13:12:25.328Z,1013.11
2019-05-03T13:13:25.535Z,1013.18
2019-05-03T13:14:26.318Z,1013.11
2019-05-03T13:17:15.128Z,1013.11
2019-05-03T13:18:15.664Z,1013.21
2019-05-03T13:19:16.183Z,1013.11
2019-05-03T13:21:01.226Z,1013.09
2019-05-03T13:22:01.807Z,1013.13
2019-05-03T13:23:02.439Z,1013.13
2019-05-03T13:24:05.314Z,1013.14
2019-05-03T13:25:49.156Z,1013.20
2019-05-03T13:26:49.741Z,1013.20
2019-05-03T13:27:50.367Z,1013.18
2019-05-03T13:28:50.949Z,1013.18
2019-05-03T13:30:36.087Z,1013.22
2019-05-03T13:31:36.668Z,1013.25
2019-05-03T13:32:37.248Z,1013.24
2019-05-03T13:33:37.829Z,1013.29
2019-05-03T13:35:22.874Z,1013.25
2019-05-03T13:36:25.289Z,1013.29
2019-05-03T13:37:25.424Z,1013.19
2019-05-03T13:38:26.004Z,1013.26
2019-05-03T13:40:11.102Z,1013.18
2019-05-03T13:41:11.726Z,1013.25
2019-05-03T13:43:15.014Z,1013.14
2019-05-03T13:45:00.010Z,1013.09
2019-05-03T13:47:51.976Z,1013.04
2019-05-03T13:48:52.542Z,1013.10
2019-05-03T13:50:10.891Z,1013.05
2019-05-03T13:51:11.525Z,1013.04
2019-05-03T13:52:12.105Z,1013.05
2019-05-03T13:55:35.306Z,1013.05
2019-05-03T13:56:35.517Z,1013.02
2019-05-03T13:57:36.112Z,1013.08
2019-05-03T14:00:24.659Z,1013.08
2019-05-03T14:01:25.230Z,1013.08
2019-05-03T14:02:25.849Z,1013.07
2019-05-03T14:03:26.431Z,1013.02
2019-05-03T14:05:11.524Z,1012.97
2019-05-03T14:06:12.106Z,1012.94
2019-05-03T14:07:12.686Z,1012.95
2019-05-03T14:08:15.686Z,1013.02
2019-05-03T14:09:59.605Z,1013.02
2019-05-03T14:11:00.228Z,1012.97
2019-05-03T14:12:00.809Z,1012.94
2019-05-03T14:13:01.390Z,1012.96
2019-05-03T14:14:46.486Z,1013.08
2019-05-03T14:15:47.081Z,1013.02
2019-05-03T14:16:47.649Z,1012.99
2019-05-03T14:17:48.278Z,1012.98
2019-05-03T14:19:34.771Z,1012.99
2019-05-03T14:20:35.181Z,1013.07
2019-05-03T14:21:35.730Z,1012.88
2019-05-03T14:22:36.314Z,1012.88
2019-05-03T14:24:21.358Z,1012.91
2019-05-03T14:25:21.940Z,1012.85
2019-05-03T14:26:24.448Z,1012.88
2019-05-03T14:27:25.420Z,1012.83
2019-05-03T14:29:10.136Z,1012.90
2019-05-03T14:30:10.767Z,1012.79
2019-05-03T14:31:11.349Z,1012.81
2019-05-03T14:32:24.757Z,1012.81
2019-05-03T14:33:57.069Z,1012.76
2019-05-03T14:34:57.650Z,1012.78
2019-05-03T14:35:58.235Z,1012.82
2019-05-03T14:36:58.814Z,1012.77
2019-05-03T14:38:46.924Z,1012.72
2019-05-03T14:39:46.953Z,1012.63
2019-05-03T14:40:47.435Z,1012.66
2019-05-03T14:41:48.016Z,1012.58
2019-05-03T14:43:35.384Z,1012.68
2019-05-03T14:44:35.761Z,1012.69
2019-05-03T14:45:36.364Z,1012.71
2019-05-03T14:46:36.945Z,1012.65
2019-05-03T14:48:22.043Z,1012.61
2019-05-03T14:49:22.630Z,1012.70
2019-05-03T14:50:25.363Z,1012.63
2019-05-03T14:51:25.343Z,1012.72
2019-05-03T14:53:10.480Z,1012.74
2019-05-03T14:54:11.066Z,1012.70
2019-05-03T14:55:11.701Z,1012.67
2019-05-03T14:56:14.543Z,1012.77
2019-05-03T14:57:58.435Z,1012.71
2019-05-03T14:58:59.020Z,1012.82
2019-05-03T14:59:59.605Z,1012.75
2019-05-03T15:01:00.191Z,1012.80
2019-05-03T15:02:50.608Z,1012.68
2019-05-03T15:04:48.447Z,1012.63
2019-05-03T15:05:49.038Z,1012.70
2019-05-03T15:07:35.156Z,1012.77
2019-05-03T15:08:35.762Z,1012.70
2019-05-03T15:09:36.399Z,1012.72
2019-05-03T15:10:36.988Z,1012.74